sensor_id;sensor_type;location;lat;lon;timestamp;P1;durP1;ratioP1;P2;durP2;ratioP2
71083;SDS011;58741;52.672;13.548;2024-01-15T00:00:10;9.48;;;5.47;;
71083;SDS011;58741;52.672;13.548;2024-01-15T00:02:37;10.68;;;5.40;;
71083;SDS011;58741;52.672;13.548;2024-01-15T00:05:04;8.70;;;4.95;;
71083;SDS011;58741;52.672;13.548;2024-01-15T00:07:31;13.60;;;6.50;;
71083;SDS011;58741;52.672;13.548;2024-01-15T00:09:58;13.98;;;6.25;;
71083;SDS011;58741;52.672;13.548;2024-01-15T00:12:24;14.02;;;6.13;;
71083;SDS011;58741;52.672;13.548;2024-01-15T00:14:51;7.53;;;4.43;;
71083;SDS011;58741;52.672;13.548;2024-01-15T00:17:18;8.88;;;4.68;;
71083;SDS011;58741;52.672;13.548;2024-01-15T00:19:45;11.82;;;5.95;;
71083;SDS011;58741;52.672;13.548;2024-01-15T00:22:12;14.52;;;6.38;;
71083;SDS011;58741;52.672;13.548;2024-01-15T00:24:39;9.65;;;5.15;;
71083;SDS011;58741;52.672;13.548;2024-01-15T00:27:05;8.82;;;4.70;;
71083;SDS011;58741;52.672;13.548;2024-01-15T00:29:32;8.27;;;5.10;;
71083;SDS011;58741;52.672;13.548;2024-01-15T00:31:59;13.73;;;6.68;;
71083;SDS011;58741;52.672;13.548;2024-01-15T00:34:25;12.10;;;5.38;;
71083;SDS011;58741;52.672;13.548;2024-01-15T00:36:52;13.43;;;6.05;;
71083;SDS011;58741;52.672;13.548;2024-01-15T00:39:19;10.25;;;5.03;;
71083;SDS011;58741;52.672;13.548;2024-01-15T00:41:46;9.90;;;5.13;;
71083;SDS011;58741;52.672;13.548;2024-01-15T00:44:13;12.18;;;4.97;;
71083;SDS011;58741;52.672;13.548;2024-01-15T00:46:43;13.30;;;6.40;;
71083;SDS011;58741;52.672;13.548;2024-01-15T00:49:14;12.50;;;6.88;;
71083;SDS011;58741;52.672;13.548;2024-01-15T00:51:42;12.85;;;5.82;;
71083;SDS011;58741;52.672;13.548;2024-01-15T00:54:09;9.32;;;5.30;;
71083;SDS011;58741;52.672;13.548;2024-01-15T00:56:36;11.52;;;5.22;;
71083;SDS011;58741;52.672;13.548;2024-01-15T00:59:03;13.20;;;6.18;;
71083;SDS011;58741;52.672;13.548;2024-01-15T01:01:30;10.85;;;6.03;;
71083;SDS011;58741;52.672;13.548;2024-01-15T01:03:56;14.57;;;6.57;;
71083;SDS011;58741;52.672;13.548;2024-01-15T01:06:23;14.05;;;7.35;;
71083;SDS011;58741;52.672;13.548;2024-01-15T01:08:50;12.60;;;6.28;;
71083;SDS011;58741;52.672;13.548;2024-01-15T01:11:17;11.63;;;5.53;;
71083;SDS011;58741;52.672;13.548;2024-01-15T01:13:44;10.80;;;5.20;;
71083;SDS011;58741;52.672;13.548;2024-01-15T01:16:10;10.45;;;6.25;;
71083;SDS011;58741;52.672;13.548;2024-01-15T01:18:37;11.85;;;5.35;;
71083;SDS011;58741;52.672;13.548;2024-01-15T01:21:04;12.25;;;5.32;;
71083;SDS011;58741;52.672;13.548;2024-01-15T01:23:31;11.00;;;5.70;;
71083;SDS011;58741;52.672;13.548;2024-01-15T01:25:58;11.60;;;5.18;;
71083;SDS011;58741;52.672;13.548;2024-01-15T01:28:24;12.32;;;4.82;;
71083;SDS011;58741;52.672;13.548;2024-01-15T01:30:51;9.80;;;4.68;;
71083;SDS011;58741;52.672;13.548;2024-01-15T01:33:18;9.88;;;5.13;;
71083;SDS011;58741;52.672;13.548;2024-01-15T01:35:45;8.82;;;5.00;;
71083;SDS011;58741;52.672;13.548;2024-01-15T01:38:12;11.82;;;5.32;;
71083;SDS011;58741;52.672;13.548;2024-01-15T01:40:39;9.70;;;5.07;;
71083;SDS011;58741;52.672;13.548;2024-01-15T01:43:06;8.98;;;4.65;;
71083;SDS011;58741;52.672;13.548;2024-01-15T01:45:34;9.10;;;4.57;;
71083;SDS011;58741;52.672;13.548;2024-01-15T01:48:01;10.10;;;4.65;;
71083;SDS011;58741;52.672;13.548;2024-01-15T01:50:29;11.68;;;5.47;;
71083;SDS011;58741;52.672;13.548;2024-01-15T01:52:57;10.05;;;5.03;;
71083;SDS011;58741;52.672;13.548;2024-01-15T01:55:25;10.18;;;4.45;;
71083;SDS011;58741;52.672;13.548;2024-01-15T01:57:54;10.43;;;5.78;;
71083;SDS011;58741;52.672;13.548;2024-01-15T02:00:21;9.88;;;4.60;;
71083;SDS011;58741;52.672;13.548;2024-01-15T02:02:48;9.43;;;4.93;;
71083;SDS011;58741;52.672;13.548;2024-01-15T02:05:18;7.35;;;3.85;;
71083;SDS011;58741;52.672;13.548;2024-01-15T02:07:46;11.30;;;4.78;;
71083;SDS011;58741;52.672;13.548;2024-01-15T02:10:13;7.95;;;4.20;;
71083;SDS011;58741;52.672;13.548;2024-01-15T02:12:40;9.85;;;4.30;;
71083;SDS011;58741;52.672;13.548;2024-01-15T02:15:09;10.40;;;4.63;;
71083;SDS011;58741;52.672;13.548;2024-01-15T02:17:55;9.60;;;5.13;;
71083;SDS011;58741;52.672;13.548;2024-01-15T02:20:34;9.23;;;4.93;;
71083;SDS011;58741;52.672;13.548;2024-01-15T02:23:03;9.07;;;5.05;;
71083;SDS011;58741;52.672;13.548;2024-01-15T02:25:35;8.48;;;4.75;;
71083;SDS011;58741;52.672;13.548;2024-01-15T02:28:03;9.10;;;5.13;;
71083;SDS011;58741;52.672;13.548;2024-01-15T02:30:31;9.57;;;4.75;;
71083;SDS011;58741;52.672;13.548;2024-01-15T02:32:59;10.27;;;4.40;;
71083;SDS011;58741;52.672;13.548;2024-01-15T02:35:25;9.60;;;4.55;;
71083;SDS011;58741;52.672;13.548;2024-01-15T02:37:52;9.15;;;4.45;;
71083;SDS011;58741;52.672;13.548;2024-01-15T02:40:19;7.70;;;3.63;;
71083;SDS011;58741;52.672;13.548;2024-01-15T02:42:45;10.30;;;4.10;;
71083;SDS011;58741;52.672;13.548;2024-01-15T02:45:12;11.52;;;4.95;;
71083;SDS011;58741;52.672;13.548;2024-01-15T02:47:39;8.40;;;4.32;;
71083;SDS011;58741;52.672;13.548;2024-01-15T02:50:06;6.72;;;3.63;;
71083;SDS011;58741;52.672;13.548;2024-01-15T02:52:33;8.63;;;3.40;;
71083;SDS011;58741;52.672;13.548;2024-01-15T02:55:00;5.60;;;3.25;;
71083;SDS011;58741;52.672;13.548;2024-01-15T02:57:26;7.53;;;3.70;;
71083;SDS011;58741;52.672;13.548;2024-01-15T02:59:53;4.50;;;2.78;;
71083;SDS011;58741;52.672;13.548;2024-01-15T03:02:20;3.88;;;2.92;;
71083;SDS011;58741;52.672;13.548;2024-01-15T03:04:46;9.77;;;3.88;;
71083;SDS011;58741;52.672;13.548;2024-01-15T03:07:13;9.85;;;3.60;;
71083;SDS011;58741;52.672;13.548;2024-01-15T03:09:40;9.40;;;3.40;;
71083;SDS011;58741;52.672;13.548;2024-01-15T03:12:07;7.78;;;3.38;;
71083;SDS011;58741;52.672;13.548;2024-01-15T03:14:34;6.60;;;3.03;;
71083;SDS011;58741;52.672;13.548;2024-01-15T03:17:01;7.15;;;3.20;;
71083;SDS011;58741;52.672;13.548;2024-01-15T03:19:28;6.07;;;3.10;;
71083;SDS011;58741;52.672;13.548;2024-01-15T03:21:55;7.20;;;3.00;;
71083;SDS011;58741;52.672;13.548;2024-01-15T03:24:22;7.78;;;3.25;;
71083;SDS011;58741;52.672;13.548;2024-01-15T03:26:49;4.88;;;2.35;;
71083;SDS011;58741;52.672;13.548;2024-01-15T03:29:16;9.65;;;3.08;;
71083;SDS011;58741;52.672;13.548;2024-01-15T03:31:42;6.63;;;3.00;;
71083;SDS011;58741;52.672;13.548;2024-01-15T03:34:09;6.03;;;2.47;;
71083;SDS011;58741;52.672;13.548;2024-01-15T03:36:36;3.10;;;2.28;;
71083;SDS011;58741;52.672;13.548;2024-01-15T03:39:03;5.18;;;2.53;;
71083;SDS011;58741;52.672;13.548;2024-01-15T03:41:29;8.40;;;2.85;;
71083;SDS011;58741;52.672;13.548;2024-01-15T03:43:56;6.20;;;3.17;;
71083;SDS011;58741;52.672;13.548;2024-01-15T03:46:24;6.97;;;2.40;;
71083;SDS011;58741;52.672;13.548;2024-01-15T03:48:51;6.28;;;2.50;;
71083;SDS011;58741;52.672;13.548;2024-01-15T03:51:18;5.45;;;2.60;;
71083;SDS011;58741;52.672;13.548;2024-01-15T03:53:45;7.38;;;2.70;;
71083;SDS011;58741;52.672;13.548;2024-01-15T03:56:11;6.05;;;2.72;;
71083;SDS011;58741;52.672;13.548;2024-01-15T03:58:38;11.82;;;2.90;;
71083;SDS011;58741;52.672;13.548;2024-01-15T04:01:09;6.75;;;3.05;;
71083;SDS011;58741;52.672;13.548;2024-01-15T04:03:37;5.22;;;3.20;;
71083;SDS011;58741;52.672;13.548;2024-01-15T04:06:04;6.03;;;2.88;;
71083;SDS011;58741;52.672;13.548;2024-01-15T04:08:31;5.40;;;2.50;;
71083;SDS011;58741;52.672;13.548;2024-01-15T04:10:58;6.47;;;2.75;;
71083;SDS011;58741;52.672;13.548;2024-01-15T04:13:24;6.68;;;2.90;;
71083;SDS011;58741;52.672;13.548;2024-01-15T04:15:51;5.43;;;2.55;;
71083;SDS011;58741;52.672;13.548;2024-01-15T04:18:18;8.55;;;2.78;;
71083;SDS011;58741;52.672;13.548;2024-01-15T04:20:45;3.83;;;2.70;;
71083;SDS011;58741;52.672;13.548;2024-01-15T04:23:12;4.32;;;2.50;;
71083;SDS011;58741;52.672;13.548;2024-01-15T04:25:39;9.02;;;2.45;;
71083;SDS011;58741;52.672;13.548;2024-01-15T04:28:09;9.05;;;2.92;;
71083;SDS011;58741;52.672;13.548;2024-01-15T04:30:35;4.40;;;2.80;;
71083;SDS011;58741;52.672;13.548;2024-01-15T04:33:02;7.50;;;2.47;;
71083;SDS011;58741;52.672;13.548;2024-01-15T04:35:30;3.15;;;2.10;;
71083;SDS011;58741;52.672;13.548;2024-01-15T04:37:57;7.00;;;2.05;;
71083;SDS011;58741;52.672;13.548;2024-01-15T04:40:24;6.30;;;2.78;;
71083;SDS011;58741;52.672;13.548;2024-01-15T04:42:54;7.03;;;2.72;;
71083;SDS011;58741;52.672;13.548;2024-01-15T04:45:20;6.22;;;2.40;;
71083;SDS011;58741;52.672;13.548;2024-01-15T04:47:49;5.35;;;2.55;;
71083;SDS011;58741;52.672;13.548;2024-01-15T04:50:15;5.82;;;2.00;;
71083;SDS011;58741;52.672;13.548;2024-01-15T04:52:42;6.28;;;1.95;;
71083;SDS011;58741;52.672;13.548;2024-01-15T04:55:09;7.45;;;2.55;;
71083;SDS011;58741;52.672;13.548;2024-01-15T04:57:36;6.28;;;2.08;;
71083;SDS011;58741;52.672;13.548;2024-01-15T05:00:03;4.32;;;2.30;;
71083;SDS011;58741;52.672;13.548;2024-01-15T05:02:31;4.68;;;2.30;;
71083;SDS011;58741;52.672;13.548;2024-01-15T05:04:58;3.03;;;1.92;;
71083;SDS011;58741;52.672;13.548;2024-01-15T05:07:24;3.50;;;2.03;;
71083;SDS011;58741;52.672;13.548;2024-01-15T05:09:51;2.83;;;1.52;;
71083;SDS011;58741;52.672;13.548;2024-01-15T05:12:18;5.93;;;2.05;;
71083;SDS011;58741;52.672;13.548;2024-01-15T05:14:45;7.82;;;2.10;;
71083;SDS011;58741;52.672;13.548;2024-01-15T05:17:11;2.85;;;1.45;;
71083;SDS011;58741;52.672;13.548;2024-01-15T05:19:38;5.35;;;2.38;;
71083;SDS011;58741;52.672;13.548;2024-01-15T05:22:05;7.18;;;1.80;;
71083;SDS011;58741;52.672;13.548;2024-01-15T05:24:31;2.85;;;1.75;;
71083;SDS011;58741;52.672;13.548;2024-01-15T05:26:58;3.85;;;1.60;;
71083;SDS011;58741;52.672;13.548;2024-01-15T05:29:25;3.17;;;1.25;;
71083;SDS011;58741;52.672;13.548;2024-01-15T05:31:53;6.75;;;1.92;;
71083;SDS011;58741;52.672;13.548;2024-01-15T05:34:19;3.10;;;1.75;;
71083;SDS011;58741;52.672;13.548;2024-01-15T05:36:46;2.47;;;1.10;;
71083;SDS011;58741;52.672;13.548;2024-01-15T05:39:14;4.10;;;1.20;;
71083;SDS011;58741;52.672;13.548;2024-01-15T05:41:41;3.40;;;1.35;;
71083;SDS011;58741;52.672;13.548;2024-01-15T05:44:07;2.90;;;1.75;;
71083;SDS011;58741;52.672;13.548;2024-01-15T05:46:34;2.25;;;1.48;;
71083;SDS011;58741;52.672;13.548;2024-01-15T05:49:01;3.22;;;1.55;;
71083;SDS011;58741;52.672;13.548;2024-01-15T05:51:28;3.15;;;1.27;;
71083;SDS011;58741;52.672;13.548;2024-01-15T05:53:55;3.97;;;1.20;;
71083;SDS011;58741;52.672;13.548;2024-01-15T05:56:22;1.48;;;1.17;;
71083;SDS011;58741;52.672;13.548;2024-01-15T05:58:50;5.13;;;1.30;;
71083;SDS011;58741;52.672;13.548;2024-01-15T06:01:17;3.05;;;1.00;;
71083;SDS011;58741;52.672;13.548;2024-01-15T06:03:44;3.35;;;1.35;;
71083;SDS011;58741;52.672;13.548;2024-01-15T06:06:10;4.35;;;1.70;;
71083;SDS011;58741;52.672;13.548;2024-01-15T06:08:37;1.83;;;1.13;;
71083;SDS011;58741;52.672;13.548;2024-01-15T06:11:04;6.88;;;1.45;;
71083;SDS011;58741;52.672;13.548;2024-01-15T06:13:32;3.75;;;1.20;;
71083;SDS011;58741;52.672;13.548;2024-01-15T06:15:59;4.00;;;1.60;;
71083;SDS011;58741;52.672;13.548;2024-01-15T06:18:26;1.25;;;0.85;;
71083;SDS011;58741;52.672;13.548;2024-01-15T06:20:52;3.97;;;1.00;;
71083;SDS011;58741;52.672;13.548;2024-01-15T06:23:19;5.95;;;0.90;;
71083;SDS011;58741;52.672;13.548;2024-01-15T06:25:47;4.65;;;0.98;;
71083;SDS011;58741;52.672;13.548;2024-01-15T06:28:13;5.45;;;1.23;;
71083;SDS011;58741;52.672;13.548;2024-01-15T06:30:40;2.08;;;0.70;;
71083;SDS011;58741;52.672;13.548;2024-01-15T06:33:07;1.45;;;0.93;;
71083;SDS011;58741;52.672;13.548;2024-01-15T06:35:34;4.07;;;1.23;;
71083;SDS011;58741;52.672;13.548;2024-01-15T06:38:01;0.77;;;0.68;;
71083;SDS011;58741;52.672;13.548;2024-01-15T06:40:27;2.42;;;1.15;;
71083;SDS011;58741;52.672;13.548;2024-01-15T06:42:54;1.65;;;0.80;;
71083;SDS011;58741;52.672;13.548;2024-01-15T06:45:21;3.90;;;0.88;;
71083;SDS011;58741;52.672;13.548;2024-01-15T06:47:47;2.35;;;0.95;;
71083;SDS011;58741;52.672;13.548;2024-01-15T06:50:14;1.90;;;0.52;;
71083;SDS011;58741;52.672;13.548;2024-01-15T06:52:41;4.25;;;0.95;;
71083;SDS011;58741;52.672;13.548;2024-01-15T06:55:07;1.88;;;1.10;;
71083;SDS011;58741;52.672;13.548;2024-01-15T06:57:34;3.83;;;0.80;;
71083;SDS011;58741;52.672;13.548;2024-01-15T07:00:01;4.05;;;0.80;;
71083;SDS011;58741;52.672;13.548;2024-01-15T07:02:29;5.25;;;1.30;;
71083;SDS011;58741;52.672;13.548;2024-01-15T07:04:55;1.60;;;1.17;;
71083;SDS011;58741;52.672;13.548;2024-01-15T07:07:22;2.35;;;0.85;;
71083;SDS011;58741;52.672;13.548;2024-01-15T07:09:49;3.58;;;0.90;;
71083;SDS011;58741;52.672;13.548;2024-01-15T07:12:18;2.60;;;1.00;;
71083;SDS011;58741;52.672;13.548;2024-01-15T07:14:45;2.88;;;0.80;;
71083;SDS011;58741;52.672;13.548;2024-01-15T07:17:11;1.70;;;0.75;;
71083;SDS011;58741;52.672;13.548;2024-01-15T07:19:38;5.70;;;1.48;;
71083;SDS011;58741;52.672;13.548;2024-01-15T07:22:05;3.47;;;1.15;;
71083;SDS011;58741;52.672;13.548;2024-01-15T07:24:32;2.13;;;1.13;;
71083;SDS011;58741;52.672;13.548;2024-01-15T07:27:02;1.35;;;0.55;;
71083;SDS011;58741;52.672;13.548;2024-01-15T07:29:30;6.95;;;1.30;;
71083;SDS011;58741;52.672;13.548;2024-01-15T07:31:59;2.58;;;0.90;;
71083;SDS011;58741;52.672;13.548;2024-01-15T07:34:26;5.75;;;1.17;;
71083;SDS011;58741;52.672;13.548;2024-01-15T07:36:53;1.83;;;1.25;;
71083;SDS011;58741;52.672;13.548;2024-01-15T07:39:19;7.40;;;1.30;;
71083;SDS011;58741;52.672;13.548;2024-01-15T07:41:46;2.80;;;1.02;;
71083;SDS011;58741;52.672;13.548;2024-01-15T07:44:13;6.13;;;1.48;;
71083;SDS011;58741;52.672;13.548;2024-01-15T07:46:44;4.28;;;1.45;;
71083;SDS011;58741;52.672;13.548;2024-01-15T07:49:11;1.38;;;0.85;;
71083;SDS011;58741;52.672;13.548;2024-01-15T07:51:39;5.70;;;1.10;;
71083;SDS011;58741;52.672;13.548;2024-01-15T07:54:10;4.25;;;1.00;;
71083;SDS011;58741;52.672;13.548;2024-01-15T07:56:56;3.65;;;1.20;;
71083;SDS011;58741;52.672;13.548;2024-01-15T08:01:51;1.80;;;0.90;;
71083;SDS011;58741;52.672;13.548;2024-01-15T08:04:19;5.85;;;1.98;;
71083;SDS011;58741;52.672;13.548;2024-01-15T08:06:46;6.20;;;1.23;;
71083;SDS011;58741;52.672;13.548;2024-01-15T08:09:13;4.03;;;1.05;;
71083;SDS011;58741;52.672;13.548;2024-01-15T08:11:40;4.18;;;1.35;;
71083;SDS011;58741;52.672;13.548;2024-01-15T08:14:08;8.77;;;1.50;;
71083;SDS011;58741;52.672;13.548;2024-01-15T08:16:36;4.30;;;1.63;;
71083;SDS011;58741;52.672;13.548;2024-01-15T08:19:03;5.20;;;1.77;;
71083;SDS011;58741;52.672;13.548;2024-01-15T08:21:30;4.47;;;1.42;;
71083;SDS011;58741;52.672;13.548;2024-01-15T08:24:01;7.18;;;1.38;;
71083;SDS011;58741;52.672;13.548;2024-01-15T08:26:29;8.05;;;1.20;;
71083;SDS011;58741;52.672;13.548;2024-01-15T08:28:55;1.58;;;1.05;;
71083;SDS011;58741;52.672;13.548;2024-01-15T08:31:23;13.38;;;1.55;;
71083;SDS011;58741;52.672;13.548;2024-01-15T08:33:50;6.32;;;1.52;;
71083;SDS011;58741;52.672;13.548;2024-01-15T08:36:18;3.95;;;1.48;;
71083;SDS011;58741;52.672;13.548;2024-01-15T08:38:45;5.95;;;1.20;;
71083;SDS011;58741;52.672;13.548;2024-01-15T08:41:12;5.68;;;1.45;;
71083;SDS011;58741;52.672;13.548;2024-01-15T08:43:39;4.50;;;0.80;;
71083;SDS011;58741;52.672;13.548;2024-01-15T08:46:07;7.47;;;1.23;;
71083;SDS011;58741;52.672;13.548;2024-01-15T08:48:34;3.22;;;1.00;;
71083;SDS011;58741;52.672;13.548;2024-01-15T08:51:01;2.92;;;1.25;;
71083;SDS011;58741;52.672;13.548;2024-01-15T08:53:28;4.95;;;0.90;;
71083;SDS011;58741;52.672;13.548;2024-01-15T08:55:54;4.78;;;1.40;;
71083;SDS011;58741;52.672;13.548;2024-01-15T08:58:22;3.97;;;1.20;;
71083;SDS011;58741;52.672;13.548;2024-01-15T09:00:49;4.15;;;0.93;;
71083;SDS011;58741;52.672;13.548;2024-01-15T09:03:17;2.28;;;0.90;;
71083;SDS011;58741;52.672;13.548;2024-01-15T09:05:44;3.38;;;0.75;;
71083;SDS011;58741;52.672;13.548;2024-01-15T09:08:11;2.78;;;0.73;;
71083;SDS011;58741;52.672;13.548;2024-01-15T09:10:38;4.05;;;1.15;;
71083;SDS011;58741;52.672;13.548;2024-01-15T09:13:05;2.70;;;1.00;;
71083;SDS011;58741;52.672;13.548;2024-01-15T09:15:31;6.25;;;1.02;;
71083;SDS011;58741;52.672;13.548;2024-01-15T09:17:58;1.40;;;0.73;;
71083;SDS011;58741;52.672;13.548;2024-01-15T09:20:25;4.55;;;1.40;;
71083;SDS011;58741;52.672;13.548;2024-01-15T09:22:53;8.38;;;1.23;;
71083;SDS011;58741;52.672;13.548;2024-01-15T09:25:20;2.08;;;0.88;;
71083;SDS011;58741;52.672;13.548;2024-01-15T09:27:46;4.65;;;1.00;;
71083;SDS011;58741;52.672;13.548;2024-01-15T09:30:14;7.45;;;1.50;;
71083;SDS011;58741;52.672;13.548;2024-01-15T09:32:41;6.43;;;1.30;;
71083;SDS011;58741;52.672;13.548;2024-01-15T09:35:08;3.40;;;0.90;;
71083;SDS011;58741;52.672;13.548;2024-01-15T09:37:35;2.65;;;1.00;;
71083;SDS011;58741;52.672;13.548;2024-01-15T09:40:13;1.73;;;0.90;;
71083;SDS011;58741;52.672;13.548;2024-01-15T09:42:42;4.60;;;1.25;;
71083;SDS011;58741;52.672;13.548;2024-01-15T09:45:09;3.15;;;1.02;;
71083;SDS011;58741;52.672;13.548;2024-01-15T09:47:37;4.75;;;1.15;;
71083;SDS011;58741;52.672;13.548;2024-01-15T09:50:10;2.47;;;0.80;;
71083;SDS011;58741;52.672;13.548;2024-01-15T09:52:37;6.15;;;0.73;;
71083;SDS011;58741;52.672;13.548;2024-01-15T09:55:05;3.97;;;0.60;;
71083;SDS011;58741;52.672;13.548;2024-01-15T09:57:32;3.08;;;0.90;;
71083;SDS011;58741;52.672;13.548;2024-01-15T09:59:59;2.30;;;0.98;;
71083;SDS011;58741;52.672;13.548;2024-01-15T10:02:30;2.42;;;0.85;;
71083;SDS011;58741;52.672;13.548;2024-01-15T10:04:57;2.63;;;0.68;;
71083;SDS011;58741;52.672;13.548;2024-01-15T10:07:24;4.20;;;1.00;;
71083;SDS011;58741;52.672;13.548;2024-01-15T10:09:52;3.78;;;0.63;;
71083;SDS011;58741;52.672;13.548;2024-01-15T10:12:20;1.92;;;1.02;;
71083;SDS011;58741;52.672;13.548;2024-01-15T10:14:48;1.70;;;0.75;;
71083;SDS011;58741;52.672;13.548;2024-01-15T10:17:16;5.70;;;0.80;;
71083;SDS011;58741;52.672;13.548;2024-01-15T10:19:46;2.10;;;0.90;;
71083;SDS011;58741;52.672;13.548;2024-01-15T10:22:16;8.02;;;1.52;;
71083;SDS011;58741;52.672;13.548;2024-01-15T10:24:44;1.88;;;0.63;;
71083;SDS011;58741;52.672;13.548;2024-01-15T10:27:11;0.70;;;0.55;;
71083;SDS011;58741;52.672;13.548;2024-01-15T10:29:40;2.75;;;1.00;;
71083;SDS011;58741;52.672;13.548;2024-01-15T10:32:08;4.82;;;0.98;;
71083;SDS011;58741;52.672;13.548;2024-01-15T10:34:39;4.68;;;0.90;;
71083;SDS011;58741;52.672;13.548;2024-01-15T10:37:10;2.22;;;0.82;;
71083;SDS011;58741;52.672;13.548;2024-01-15T10:39:37;6.07;;;0.80;;
71083;SDS011;58741;52.672;13.548;2024-01-15T10:42:05;1.73;;;0.60;;
71083;SDS011;58741;52.672;13.548;2024-01-15T10:44:33;1.85;;;0.50;;
71083;SDS011;58741;52.672;13.548;2024-01-15T10:47:01;3.85;;;0.75;;
71083;SDS011;58741;52.672;13.548;2024-01-15T10:49:28;1.48;;;0.65;;
71083;SDS011;58741;52.672;13.548;2024-01-15T10:52:00;2.55;;;0.82;;
71083;SDS011;58741;52.672;13.548;2024-01-15T10:54:29;4.15;;;0.70;;
71083;SDS011;58741;52.672;13.548;2024-01-15T10:56:56;1.25;;;0.50;;
71083;SDS011;58741;52.672;13.548;2024-01-15T10:59:23;1.65;;;0.65;;
71083;SDS011;58741;52.672;13.548;2024-01-15T11:01:51;5.68;;;0.82;;
71083;SDS011;58741;52.672;13.548;2024-01-15T11:04:22;1.98;;;0.60;;
71083;SDS011;58741;52.672;13.548;2024-01-15T11:06:52;0.63;;;0.40;;
71083;SDS011;58741;52.672;13.548;2024-01-15T11:09:21;1.38;;;0.70;;
71083;SDS011;58741;52.672;13.548;2024-01-15T11:11:52;1.38;;;0.60;;
71083;SDS011;58741;52.672;13.548;2024-01-15T11:14:38;2.72;;;0.80;;
71083;SDS011;58741;52.672;13.548;2024-01-15T11:17:05;2.60;;;0.98;;
71083;SDS011;58741;52.672;13.548;2024-01-15T11:19:38;2.08;;;0.60;;
71083;SDS011;58741;52.672;13.548;2024-01-15T11:25:14;1.27;;;0.70;;
71083;SDS011;58741;52.672;13.548;2024-01-15T11:27:42;2.75;;;0.57;;
71083;SDS011;58741;52.672;13.548;2024-01-15T11:30:11;1.65;;;0.55;;
71083;SDS011;58741;52.672;13.548;2024-01-15T11:32:39;1.45;;;0.90;;
71083;SDS011;58741;52.672;13.548;2024-01-15T11:35:10;2.00;;;0.52;;
71083;SDS011;58741;52.672;13.548;2024-01-15T11:40:35;0.95;;;0.40;;
71083;SDS011;58741;52.672;13.548;2024-01-15T11:43:04;0.82;;;0.60;;
71083;SDS011;58741;52.672;13.548;2024-01-15T11:45:33;1.35;;;0.52;;
71083;SDS011;58741;52.672;13.548;2024-01-15T11:48:08;0.75;;;0.30;;
71083;SDS011;58741;52.672;13.548;2024-01-15T11:50:46;1.67;;;0.30;;
71083;SDS011;58741;52.672;13.548;2024-01-15T11:53:21;3.05;;;0.40;;
71083;SDS011;58741;52.672;13.548;2024-01-15T11:56:01;0.50;;;0.32;;
71083;SDS011;58741;52.672;13.548;2024-01-15T11:58:29;0.52;;;0.52;;
71083;SDS011;58741;52.672;13.548;2024-01-15T12:00:56;3.25;;;0.40;;
71083;SDS011;58741;52.672;13.548;2024-01-15T12:03:23;1.83;;;0.55;;
71083;SDS011;58741;52.672;13.548;2024-01-15T12:05:53;1.60;;;0.55;;
71083;SDS011;58741;52.672;13.548;2024-01-15T12:08:24;1.23;;;0.40;;
71083;SDS011;58741;52.672;13.548;2024-01-15T12:10:52;0.50;;;0.47;;
71083;SDS011;58741;52.672;13.548;2024-01-15T12:13:19;0.80;;;0.77;;
71083;SDS011;58741;52.672;13.548;2024-01-15T12:15:47;1.35;;;0.50;;
71083;SDS011;58741;52.672;13.548;2024-01-15T12:18:15;0.80;;;0.43;;
71083;SDS011;58741;52.672;13.548;2024-01-15T12:20:43;0.77;;;0.60;;
71083;SDS011;58741;52.672;13.548;2024-01-15T12:23:13;0.55;;;0.55;;
71083;SDS011;58741;52.672;13.548;2024-01-15T12:25:40;0.82;;;0.52;;
71083;SDS011;58741;52.672;13.548;2024-01-15T12:28:07;2.00;;;0.60;;
71083;SDS011;58741;52.672;13.548;2024-01-15T12:30:34;0.35;;;0.35;;
71083;SDS011;58741;52.672;13.548;2024-01-15T12:33:02;0.80;;;0.40;;
71083;SDS011;58741;52.672;13.548;2024-01-15T12:35:30;2.38;;;0.50;;
71083;SDS011;58741;52.672;13.548;2024-01-15T12:37:59;1.25;;;0.47;;
71083;SDS011;58741;52.672;13.548;2024-01-15T12:40:29;0.43;;;0.30;;
71083;SDS011;58741;52.672;13.548;2024-01-15T12:42:56;0.70;;;0.35;;
71083;SDS011;58741;52.672;13.548;2024-01-15T12:45:23;0.40;;;0.40;;
71083;SDS011;58741;52.672;13.548;2024-01-15T12:47:50;0.50;;;0.50;;
71083;SDS011;58741;52.672;13.548;2024-01-15T12:50:17;0.57;;;0.40;;
71083;SDS011;58741;52.672;13.548;2024-01-15T12:52:46;1.02;;;0.50;;
71083;SDS011;58741;52.672;13.548;2024-01-15T12:55:13;0.70;;;0.55;;
71083;SDS011;58741;52.672;13.548;2024-01-15T12:57:41;1.75;;;0.65;;
71083;SDS011;58741;52.672;13.548;2024-01-15T13:00:08;0.52;;;0.30;;
71083;SDS011;58741;52.672;13.548;2024-01-15T13:02:40;0.55;;;0.40;;
71083;SDS011;58741;52.672;13.548;2024-01-15T13:05:09;0.30;;;0.30;;
71083;SDS011;58741;52.672;13.548;2024-01-15T13:07:41;0.52;;;0.40;;
71083;SDS011;58741;52.672;13.548;2024-01-15T13:10:09;0.73;;;0.40;;
71083;SDS011;58741;52.672;13.548;2024-01-15T13:12:36;0.80;;;0.40;;
71083;SDS011;58741;52.672;13.548;2024-01-15T13:15:04;3.40;;;0.40;;
71083;SDS011;58741;52.672;13.548;2024-01-15T13:17:31;0.70;;;0.20;;
71083;SDS011;58741;52.672;13.548;2024-01-15T13:19:58;0.73;;;0.40;;
71083;SDS011;58741;52.672;13.548;2024-01-15T13:22:26;0.30;;;0.20;;
71083;SDS011;58741;52.672;13.548;2024-01-15T13:24:58;2.00;;;0.28;;
71083;SDS011;58741;52.672;13.548;2024-01-15T13:27:25;1.00;;;0.40;;
71083;SDS011;58741;52.672;13.548;2024-01-15T13:29:52;1.15;;;0.40;;
71083;SDS011;58741;52.672;13.548;2024-01-15T13:32:22;0.60;;;0.55;;
71083;SDS011;58741;52.672;13.548;2024-01-15T13:34:57;1.17;;;0.40;;
71083;SDS011;58741;52.672;13.548;2024-01-15T13:37:24;0.40;;;0.40;;
71083;SDS011;58741;52.672;13.548;2024-01-15T13:39:51;1.30;;;0.47;;
71083;SDS011;58741;52.672;13.548;2024-01-15T13:42:19;1.17;;;0.50;;
71083;SDS011;58741;52.672;13.548;2024-01-15T13:44:48;0.88;;;0.40;;
71083;SDS011;58741;52.672;13.548;2024-01-15T13:47:15;0.73;;;0.35;;
71083;SDS011;58741;52.672;13.548;2024-01-15T13:49:41;0.75;;;0.40;;
71083;SDS011;58741;52.672;13.548;2024-01-15T13:52:08;17.98;;;7.45;;
71083;SDS011;58741;52.672;13.548;2024-01-15T13:54:35;113.13;;;36.38;;
71083;SDS011;58741;52.672;13.548;2024-01-15T13:57:15;32.50;;;13.35;;
71083;SDS011;58741;52.672;13.548;2024-01-15T13:59:42;15.85;;;10.65;;
71083;SDS011;58741;52.672;13.548;2024-01-15T14:02:09;10.55;;;6.43;;
71083;SDS011;58741;52.672;13.548;2024-01-15T14:04:37;7.53;;;5.47;;
71083;SDS011;58741;52.672;13.548;2024-01-15T14:07:04;3.13;;;2.70;;
71083;SDS011;58741;52.672;13.548;2024-01-15T14:09:31;2.40;;;1.70;;
71083;SDS011;58741;52.672;13.548;2024-01-15T14:11:58;2.15;;;1.73;;
71083;SDS011;58741;52.672;13.548;2024-01-15T14:14:26;1.67;;;1.23;;
71083;SDS011;58741;52.672;13.548;2024-01-15T14:16:52;1.02;;;0.93;;
71083;SDS011;58741;52.672;13.548;2024-01-15T14:19:19;1.27;;;0.90;;
71083;SDS011;58741;52.672;13.548;2024-01-15T14:21:47;0.57;;;0.47;;
71083;SDS011;58741;52.672;13.548;2024-01-15T14:24:15;1.30;;;0.60;;
71083;SDS011;58741;52.672;13.548;2024-01-15T14:26:43;0.70;;;0.45;;
71083;SDS011;58741;52.672;13.548;2024-01-15T14:29:10;1.58;;;0.63;;
71083;SDS011;58741;52.672;13.548;2024-01-15T14:31:36;3.80;;;0.68;;
71083;SDS011;58741;52.672;13.548;2024-01-15T14:34:04;5.47;;;1.05;;
71083;SDS011;58741;52.672;13.548;2024-01-15T14:36:31;3.00;;;0.63;;
71083;SDS011;58741;52.672;13.548;2024-01-15T14:38:58;3.28;;;1.00;;
71083;SDS011;58741;52.672;13.548;2024-01-15T14:41:24;1.20;;;0.93;;
71083;SDS011;58741;52.672;13.548;2024-01-15T14:43:51;2.38;;;0.80;;